Time;durP1;ratioP1;P1;durP2;ratioP2;P2;SDS_P1;SDS_P2;PMS_P1;PMS_P2;Temp;Humidity;BMP_temperature;BMP_pressure;BME280_temperature;BME280_humidity;BME280_pressure;Samples;Min_cycle;Max_cycle;Signal;HPM_P1;HPM_P2
2023/04/12 00:01:37;;;;;;;5.47;1.70;;;;;;;7.11;nan;96675.06;5041520;28;20045;-79
2023/04/12 00:04:27;;;;;;;6.50;1.80;;;;;;;7.22;nan;96674.25;5042870;28;20088;-78
2023/04/12 00:07:11;;;;;;;6.55;3.50;;;;;;;7.39;nan;96684.75;5037199;28;20068;-78
2023/04/12 00:09:55;;;;;;;3.90;2.10;;;;;;;7.42;nan;96688.69;5042406;28;20102;-79
2023/04/12 00:12:39;;;;;;;7.88;2.17;;;;;;;7.46;nan;96695.03;5043915;28;20052;-79
2023/04/12 00:15:24;;;;;;;6.40;1.92;;;;;;;7.29;nan;96716.66;5042416;28;20134;-78
2023/04/12 00:18:08;;;;;;;3.67;1.75;;;;;;;6.92;nan;96740.41;5040892;28;20095;-78
2023/04/12 00:20:52;;;;;;;3.40;1.65;;;;;;;6.93;nan;96713.31;5038464;28;20048;-78
2023/04/12 00:23:39;;;;;;;4.75;1.40;;;;;;;6.35;nan;96691.41;5043139;28;20044;-78
2023/04/12 00:26:26;;;;;;;6.90;1.27;;;;;;;6.05;nan;96707.91;5042226;28;20513;-78
2023/04/12 00:29:10;;;;;;;2.63;1.10;;;;;;;5.98;nan;96698.34;5042221;28;20044;-78
2023/04/12 00:31:54;;;;;;;7.40;1.15;;;;;;;5.92;nan;96699.25;5040516;28;20103;-78
2023/04/12 00:34:38;;;;;;;3.08;1.20;;;;;;;5.80;nan;96704.41;5042914;28;20579;-78
2023/04/12 00:37:22;;;;;;;4.05;1.23;;;;;;;5.74;nan;96696.69;5044885;28;20652;-78
2023/04/12 00:40:08;;;;;;;4.68;1.33;;;;;;;5.66;nan;96690.00;5039588;28;20102;-78
2023/04/12 00:42:52;;;;;;;3.50;1.40;;;;;;;5.82;nan;96694.56;5043204;28;20052;-78
2023/04/12 00:45:36;;;;;;;7.03;1.92;;;;;;;5.95;nan;96705.81;5043471;28;20102;-78
2023/04/12 00:48:21;;;;;;;11.48;2.30;;;;;;;5.90;nan;96703.09;5038863;28;20545;-78
2023/04/12 00:51:06;;;;;;;6.55;2.30;;;;;;;5.99;nan;96709.56;5038864;28;20391;-78
2023/04/12 00:53:58;;;;;;;7.50;2.15;;;;;;;6.52;nan;96709.81;5039173;28;20080;-78
2023/04/12 00:56:44;;;;;;;9.85;2.33;;;;;;;6.04;nan;96704.50;5044993;28;20045;-77
2023/04/12 00:59:29;;;;;;;5.90;2.45;;;;;;;6.00;nan;96708.56;5040063;28;20098;-78
2023/04/12 01:02:13;;;;;;;8.48;3.03;;;;;;;5.89;nan;96704.91;5042129;28;20556;-77
2023/04/12 01:04:58;;;;;;;7.15;2.60;;;;;;;5.91;nan;96702.09;5042839;28;20040;-77
2023/04/12 01:08:05;;;;;;;7.32;2.28;;;;;;;5.95;nan;96698.78;5046367;28;20121;-78
2023/04/12 01:11:01;;;;;;;8.63;2.10;;;;;;;6.07;nan;96691.03;5052450;28;20060;-79
2023/04/12 01:13:54;;;;;;;8.23;2.10;;;;;;;5.91;nan;96702.09;5044800;28;20407;-78
2023/04/12 01:16:46;;;;;;;10.70;2.72;;;;;;;5.82;nan;96691.19;5035564;28;20056;-78
2023/04/12 01:19:30;;;;;;;9.05;2.15;;;;;;;5.88;nan;96698.09;5037536;28;20052;-78
2023/04/12 01:22:30;;;;;;;12.07;2.63;;;;;;;5.89;nan;96701.50;5039822;28;20048;-78
2023/04/12 01:25:23;;;;;;;10.38;1.98;;;;;;;5.91;nan;96702.88;5039342;28;20102;-78
2023/04/12 01:28:10;;;;;;;7.85;2.20;;;;;;;5.80;nan;96696.59;5042897;28;20090;-78
2023/04/12 01:30:55;;;;;;;7.43;2.40;;;;;;;5.87;nan;96701.72;5039071;28;20048;-79
2023/04/12 01:33:42;;;;;;;16.00;2.63;;;;;;;5.89;nan;96702.28;5041302;28;20049;-78
2023/04/12 01:36:27;;;;;;;8.65;2.58;;;;;;;5.93;nan;96706.03;5042898;28;20044;-77
2023/04/12 01:39:11;;;;;;;12.60;3.35;;;;;;;5.74;nan;96707.09;5042873;28;20037;-78
2023/04/12 01:41:56;;;;;;;9.60;3.15;;;;;;;5.66;nan;96701.22;5039192;28;20052;-80
2023/04/12 01:44:39;;;;;;;8.40;2.72;;;;;;;5.74;nan;96705.31;5043323;28;20044;-80
2023/04/12 01:47:24;;;;;;;9.35;3.30;;;;;;;5.60;nan;96701.28;5039275;28;20399;-79
2023/04/12 01:50:17;;;;;;;11.52;2.80;;;;;;;5.66;nan;96711.63;5042958;28;20494;-79
2023/04/12 01:53:33;;;;;;;11.50;3.47;;;;;;;5.55;nan;96710.56;5040351;28;20048;-79
2023/04/12 01:56:21;;;;;;;13.85;2.95;;;;;;;5.61;nan;96718.50;5045164;28;20075;-79
2023/04/12 01:59:06;;;;;;;8.70;2.88;;;;;;;5.55;nan;96713.16;5039264;28;20036;-79
2023/04/12 02:01:50;;;;;;;9.23;2.75;;;;;;;5.60;nan;96701.28;5037043;28;20040;-80
2023/04/12 02:04:36;;;;;;;15.50;3.38;;;;;;;5.63;nan;96706.03;5035213;28;20133;-80
2023/04/12 02:07:20;;;;;;;9.50;3.13;;;;;;;5.53;nan;96706.56;5040947;28;20433;-79
2023/04/12 02:10:05;;;;;;;8.65;3.67;;;;;;;5.62;nan;96713.06;5047091;28;20064;-80
2023/04/12 02:12:48;;;;;;;13.82;3.78;;;;;;;5.53;nan;96714.38;5038654;28;20453;-80
2023/04/12 02:15:33;;;;;;;7.35;2.70;;;;;;;5.46;nan;96706.66;5045554;28;20043;-80
2023/04/12 02:18:17;;;;;;;6.63;2.92;;;;;;;5.33;nan;96709.44;5044024;28;20041;-80
2023/04/12 02:21:01;;;;;;;12.50;3.10;;;;;;;5.37;nan;96713.19;5043391;28;20093;-80
2023/04/12 02:23:45;;;;;;;7.68;2.28;;;;;;;5.35;nan;96713.38;5044226;28;20119;-79
2023/04/12 02:26:29;;;;;;;8.40;2.40;;;;;;;5.45;nan;96710.25;5043648;28;20040;-80
2023/04/12 02:29:14;;;;;;;8.95;2.53;;;;;;;5.43;nan;96707.09;5041080;28;20044;-80
2023/04/12 02:31:58;;;;;;;15.88;2.70;;;;;;;5.43;nan;96714.91;5048047;28;20067;-80
2023/04/12 02:34:42;;;;;;;8.95;2.75;;;;;;;5.40;nan;96713.53;5038129;28;20041;-80
2023/04/12 02:37:28;;;;;;;12.18;2.83;;;;;;;5.25;nan;96710.50;5049556;28;20132;-80
2023/04/12 02:40:14;;;;;;;7.68;2.17;;;;;;;5.35;nan;96710.00;5042898;28;20048;-80
2023/04/12 02:42:58;;;;;;;11.45;2.60;;;;;;;5.29;nan;96712.44;5045221;28;20184;-79
2023/04/12 02:45:42;;;;;;;6.35;2.30;;;;;;;5.32;nan;96705.25;5044643;28;20716;-80
2023/04/12 02:48:26;;;;;;;17.20;2.20;;;;;;;5.30;nan;96697.66;5047501;28;20135;-80
2023/04/12 02:51:11;;;;;;;8.75;3.08;;;;;;;5.23;nan;96707.34;5046855;28;20044;-80
2023/04/12 02:53:55;;;;;;;12.07;2.78;;;;;;;5.19;nan;96691.38;5043656;28;20056;-80
2023/04/12 02:56:39;;;;;;;12.10;3.03;;;;;;;5.08;nan;96690.28;5046600;28;20072;-80
2023/04/12 02:59:24;;;;;;;11.45;2.05;;;;;;;5.18;nan;96694.97;5042269;28;20190;-80
2023/04/12 03:02:08;;;;;;;11.75;3.08;;;;;;;5.24;nan;96695.91;5044308;28;20071;-79
2023/04/12 03:04:53;;;;;;;13.75;2.35;;;;;;;5.10;nan;96697.84;5049504;28;20094;-79
2023/04/12 03:07:37;;;;;;;11.65;2.40;;;;;;;5.16;nan;96691.81;5046205;28;20064;-79
2023/04/12 03:10:21;;;;;;;12.88;2.35;;;;;;;5.09;nan;96691.88;5048410;28;20041;-79
2023/04/12 03:13:05;;;;;;;9.82;2.38;;;;;;;5.14;nan;96691.22;5042739;28;20039;-79
2023/04/12 03:15:56;;;;;;;14.68;2.95;;;;;;;5.09;nan;96689.28;5049516;28;20068;-79
2023/04/12 03:18:40;;;;;;;12.75;2.40;;;;;;;5.04;nan;96677.94;5042026;28;20044;-79
2023/04/12 03:21:24;;;;;;;12.70;3.33;;;;;;;5.05;nan;96675.13;5040910;28;20407;-79
2023/04/12 03:24:09;;;;;;;13.75;2.45;;;;;;;5.08;nan;96668.69;5044746;28;20139;-79
2023/04/12 03:26:53;;;;;;;13.60;2.55;;;;;;;5.07;nan;96677.50;5044169;28;20131;-79
2023/04/12 03:29:37;;;;;;;17.05;2.67;;;;;;;4.97;nan;96665.81;5046101;28;20052;-79
2023/04/12 03:32:21;;;;;;;6.82;2.00;;;;;;;4.93;nan;96675.06;5040787;28;20069;-79
2023/04/12 03:35:06;;;;;;;13.32;2.42;;;;;;;4.97;nan;96667.59;5041574;28;20465;-79
2023/04/12 03:37:50;;;;;;;12.88;2.60;;;;;;;4.90;nan;96665.06;5044335;28;20044;-79
2023/04/12 03:40:34;;;;;;;8.00;2.40;;;;;;;4.85;nan;96662.31;5038580;28;20051;-79
2023/04/12 03:43:19;;;;;;;12.55;2.15;;;;;;;4.88;nan;96643.69;5044930;28;20053;-79
2023/04/12 03:46:04;;;;;;;9.25;2.05;;;;;;;4.75;nan;96646.47;5041693;28;20458;-79
2023/04/12 03:48:49;;;;;;;9.02;2.20;;;;;;;4.69;nan;96643.69;5040173;28;20118;-79
2023/04/12 03:51:33;;;;;;;10.80;2.35;;;;;;;4.64;nan;96632.38;5043279;28;20071;-79
2023/04/12 03:54:17;;;;;;;11.23;2.05;;;;;;;4.78;nan;96644.19;5040223;28;20040;-79
2023/04/12 03:57:01;;;;;;;5.60;2.05;;;;;;;4.77;nan;96649.63;5040071;28;20059;-79
2023/04/12 03:59:45;;;;;;;9.68;2.15;;;;;;;4.75;nan;96638.66;5040577;28;20048;-80
2023/04/12 04:02:30;;;;;;;8.23;2.08;;;;;;;4.65;nan;96645.13;5037935;28;20056;-80
2023/04/12 04:05:14;;;;;;;9.95;2.40;;;;;;;4.66;nan;96640.75;5045013;28;20047;-79
2023/04/12 04:08:01;;;;;;;14.05;3.00;;;;;;;4.62;nan;96634.38;5043483;28;20040;-79
2023/04/12 04:10:45;;;;;;;9.10;1.90;;;;;;;4.72;nan;96635.50;5040333;28;20039;-78
2023/04/12 04:13:29;;;;;;;11.70;1.98;;;;;;;4.49;nan;96630.91;5044467;28;20418;-79
2023/04/12 04:16:13;;;;;;;15.32;1.85;;;;;;;4.61;nan;96627.59;5041275;28;20060;-79
2023/04/12 04:18:57;;;;;;;4.53;1.98;;;;;;;4.57;nan;96622.06;5040772;28;20131;-80
2023/04/12 04:21:41;;;;;;;7.50;2.17;;;;;;;4.52;nan;96614.09;5041253;28;20395;-79
2023/04/12 04:24:25;;;;;;;7.20;1.95;;;;;;;4.57;nan;96609.84;5043418;28;20075;-80
2023/04/12 04:27:09;;;;;;;10.35;1.73;;;;;;;4.45;nan;96614.19;5041902;28;20506;-78
2023/04/12 04:29:57;;;;;;;12.40;1.65;;;;;;;4.43;nan;96604.00;5039964;28;20411;-79
2023/04/12 04:32:41;;;;;;;8.15;1.92;;;;;;;4.49;nan;96591.13;5043124;28;20052;-79
2023/04/12 04:35:26;;;;;;;6.72;1.60;;;;;;;4.43;nan;96604.00;5042810;28;21251;-79
2023/04/12 04:38:10;;;;;;;5.60;2.22;;;;;;;4.38;nan;96590.84;5039288;28;20095;-78
2023/04/12 04:40:54;;;;;;;5.47;1.70;;;;;;;4.42;nan;96599.81;5044084;28;20088;-78
2023/04/12 04:43:38;;;;;;;4.18;1.83;;;;;;;4.48;nan;96597.34;5041862;28;20115;-78
2023/04/12 04:46:22;;;;;;;6.63;1.67;;;;;;;4.31;nan;96603.09;5036252;28;20141;-79
2023/04/12 04:49:06;;;;;;;12.07;2.10;;;;;;;4.36;nan;96600.66;5041160;28;20116;-79
2023/04/12 04:51:51;;;;;;;12.80;2.00;;;;;;;4.33;nan;96588.13;5038589;28;20040;-79
2023/04/12 04:54:35;;;;;;;4.65;1.70;;;;;;;4.41;nan;96598.22;5040963;28;20392;-80
2023/04/12 04:57:19;;;;;;;4.63;1.63;;;;;;;4.33;nan;96595.09;5044263;28;20051;-79
2023/04/12 05:00:12;;;;;;;9.93;1.90;;;;;;;4.33;nan;96590.72;5039151;28;20036;-79
2023/04/12 05:02:56;;;;;;;9.27;1.90;;;;;;;4.41;nan;96608.59;5038965;28;20113;-79
2023/04/12 05:05:40;;;;;;;11.82;1.55;;;;;;;4.42;nan;96614.56;5040531;28;20506;-79
2023/04/12 05:08:24;;;;;;;5.10;1.48;;;;;;;4.30;nan;96611.91;5040344;28;20169;-79
2023/04/12 05:11:08;;;;;;;10.55;2.40;;;;;;;4.32;nan;96603.91;5040663;28;20056;-79
2023/04/12 05:13:52;;;;;;;10.35;1.77;;;;;;;4.50;nan;96616.09;5040718;28;20501;-78
2023/04/12 05:16:36;;;;;;;7.97;1.65;;;;;;;4.47;nan;96598.34;5041138;28;20403;-79
2023/04/12 05:19:20;;;;;;;3.95;1.58;;;;;;;4.38;nan;96609.03;5042949;28;20044;-79
2023/04/12 05:22:05;;;;;;;8.30;2.33;;;;;;;4.44;nan;96610.00;5040068;28;20039;-79
2023/04/12 05:24:50;;;;;;;8.27;1.95;;;;;;;4.51;nan;96612.50;5040733;28;20134;-79
2023/04/12 05:27:34;;;;;;;4.82;1.88;;;;;;;4.59;nan;96609.63;5045167;28;20044;-79
2023/04/12 05:30:18;;;;;;;11.90;2.65;;;;;;;4.50;nan;96603.13;5043061;28;20394;-79
2023/04/12 05:33:02;;;;;;;12.07;2.75;;;;;;;4.60;nan;96594.81;5041247;28;20052;-79
2023/04/12 05:35:47;;;;;;;10.45;2.65;;;;;;;4.68;nan;96600.53;5036038;28;20049;-79
2023/04/12 05:38:31;;;;;;;8.35;2.08;;;;;;;4.82;nan;96605.59;5037993;28;20114;-79
2023/04/12 05:41:16;;;;;;;10.55;2.85;;;;;;;4.79;nan;96598.22;5043615;28;20113;-79
2023/04/12 05:44:02;;;;;;;9.30;2.13;;;;;;;4.81;nan;96596.19;5040833;28;20036;-78
2023/04/12 05:46:46;;;;;;;5.63;1.98;;;;;;;4.87;nan;96608.31;5044547;28;20136;-78
2023/04/12 05:49:30;;;;;;;7.72;2.30;;;;;;;4.80;nan;96605.00;5044011;28;20043;-80
2023/04/12 05:52:14;;;;;;;6.70;2.10;;;;;;;4.98;nan;96607.59;5044807;28;20048;-79
2023/04/12 05:54:58;;;;;;;10.35;1.90;;;;;;;4.92;nan;96605.88;5039290;28;20039;-79
2023/04/12 05:57:43;;;;;;;8.05;2.88;;;;;;;5.05;nan;96606.72;5042040;28;20048;-80
2023/04/12 06:00:28;;;;;;;11.55;2.78;;;;;;;5.11;nan;96598.84;5039069;28;20503;-80
2023/04/12 06:03:12;;;;;;;12.88;2.33;;;;;;;5.32;nan;96601.19;5042209;28;20044;-79
2023/04/12 06:05:55;;;;;;;7.90;2.20;;;;;;;5.31;nan;96594.41;5046178;28;20072;-79
2023/04/12 06:08:40;;;;;;;11.13;2.42;;;;;;;5.43;nan;96590.81;5043873;28;20526;-79
2023/04/12 06:11:24;;;;;;;10.77;2.33;;;;;;;5.31;nan;96592.59;5041300;28;20071;-79
2023/04/12 06:14:09;;;;;;;11.02;2.42;;;;;;;5.43;nan;96587.41;5047939;28;20067;-79
2023/04/12 06:16:53;;;;;;;8.23;2.35;;;;;;;5.51;nan;96581.91;5040161;28;20052;-80
2023/04/12 06:19:37;;;;;;;15.05;2.50;;;;;;;5.56;nan;96569.00;5037126;28;20131;-77
2023/04/12 06:22:21;;;;;;;7.18;1.90;;;;;;;5.62;nan;96574.34;5043272;28;20048;-78
2023/04/12 06:25:05;;;;;;;16.85;2.35;;;;;;;5.73;nan;96576.19;5040379;28;20091;-78
2023/04/12 06:27:49;;;;;;;11.85;3.70;;;;;;;5.73;nan;96570.97;5039069;28;20098;-78
2023/04/12 06:30:33;;;;;;;7.95;2.15;;;;;;;6.00;nan;96578.34;5046216;28;20076;-79
2023/04/12 06:33:17;;;;;;;9.05;1.85;;;;;;;6.11;nan;96572.41;5046217;28;20151;-80
2023/04/12 06:36:01;;;;;;;5.22;2.55;;;;;;;6.13;nan;96575.56;5040566;28;20530;-80
2023/04/12 06:38:45;;;;;;;7.97;2.28;;;;;;;6.21;nan;96571.03;5037654;28;20080;-77
2023/04/12 06:41:29;;;;;;;6.93;1.95;;;;;;;6.24;nan;96565.34;5045508;28;20505;-80
2023/04/12 06:44:13;;;;;;;6.75;2.13;;;;;;;6.29;nan;96568.88;5040017;28;20048;-78
2023/04/12 06:46:57;;;;;;;6.10;1.70;;;;;;;6.32;nan;96567.63;5043425;28;20095;-78
2023/04/12 06:49:42;;;;;;;11.52;2.15;;;;;;;6.48;nan;96573.13;5042781;28;20415;-77
2023/04/12 06:52:26;;;;;;;4.32;1.73;;;;;;;6.62;nan;96565.88;5039152;28;20047;-77
2023/04/12 06:55:10;;;;;;;11.60;2.30;;;;;;;6.87;nan;96568.19;5052636;28;20040;-78
2023/04/12 06:57:54;;;;;;;11.20;2.17;;;;;;;7.12;nan;96564.47;5045052;28;20032;-77
2023/04/12 07:00:39;;;;;;;5.30;1.67;;;;;;;7.23;nan;96550.56;5043557;28;20047;-77
2023/04/12 07:03:23;;;;;;;5.60;1.73;;;;;;;7.52;nan;96547.16;5039499;28;20571;-77
2023/04/12 07:06:07;;;;;;;6.78;1.92;;;;;;;7.57;nan;96540.19;5039822;28;20103;-76
2023/04/12 07:08:51;;;;;;;7.47;1.85;;;;;;;7.74;nan;96541.22;5043121;28;20039;-76
2023/04/12 07:11:35;;;;;;;13.20;2.67;;;;;;;7.55;nan;96542.25;5043075;28;20048;-77
2023/04/12 07:14:19;;;;;;;7.50;1.92;;;;;;;7.63;nan;96542.88;5039655;28;20044;-79
2023/04/12 07:17:03;;;;;;;10.90;2.55;;;;;;;7.69;nan;96534.13;5035412;28;20115;-78
2023/04/12 07:19:49;;;;;;;6.53;2.00;;;;;;;7.66;nan;96537.19;5035479;28;20186;-78
2023/04/12 07:22:33;;;;;;;6.00;1.80;;;;;;;7.40;nan;96534.97;5044562;28;20562;-78
2023/04/12 07:25:17;;;;;;;7.38;1.83;;;;;;;7.33;nan;96528.31;5044160;28;20044;-78
2023/04/12 07:28:02;;;;;;;13.43;2.03;;;;;;;7.49;nan;96526.75;5042097;28;20160;-78
2023/04/12 07:30:46;;;;;;;8.43;2.13;;;;;;;7.46;nan;96512.34;5042611;28;20178;-77
2023/04/12 07:33:30;;;;;;;10.38;1.95;;;;;;;7.59;nan;96511.25;5041537;28;20047;-79
2023/04/12 07:36:16;;;;;;;6.35;2.03;;;;;;;7.58;nan;96510.44;5042773;28;20079;-79
2023/04/12 07:39:00;;;;;;;8.90;2.08;;;;;;;7.45;nan;96502.91;5045019;28;20107;-77
2023/04/12 07:41:45;;;;;;;6.57;2.38;;;;;;;7.83;nan;96498.78;5041956;28;20538;-79
2023/04/12 07:44:30;;;;;;;4.75;1.75;;;;;;;8.03;nan;96494.09;5043316;28;20052;-78
2023/04/12 07:47:14;;;;;;;8.00;1.80;;;;;;;7.82;nan;96494.59;5036492;28;20517;-79
2023/04/12 07:49:58;;;;;;;6.32;1.60;;;;;;;7.90;nan;96490.78;5032847;28;20114;-78
2023/04/12 07:52:42;;;;;;;11.60;2.40;;;;;;;7.78;nan;96493.50;5037810;28;20072;-78
2023/04/12 07:55:26;;;;;;;4.93;1.80;;;;;;;7.72;nan;96497.06;5043397;28;20094;-78
2023/04/12 07:58:10;;;;;;;4.18;1.92;;;;;;;7.73;nan;96488.22;5038516;28;20032;-79
2023/04/12 08:00:56;;;;;;;8.60;2.22;;;;;;;7.79;nan;96484.63;5037452;28;20079;-77
2023/04/12 08:03:39;;;;;;;3.88;2.20;;;;;;;7.74;nan;96495.00;5039666;28;20052;-77
2023/04/12 08:06:23;;;;;;;11.50;2.88;;;;;;;7.77;nan;96491.16;5045050;28;20095;-78
2023/04/12 08:09:07;;;;;;;6.03;2.53;;;;;;;8.00;nan;96495.38;5042366;28;20442;-80
2023/04/12 08:11:52;;;;;;;5.78;2.28;;;;;;;8.02;nan;96488.06;5041188;28;20037;-79
2023/04/12 08:14:36;;;;;;;5.93;1.70;;;;;;;7.99;nan;96483.34;5039688;28;20186;-80
2023/04/12 08:17:20;;;;;;;6.03;1.90;;;;;;;8.13;nan;96463.69;5041868;28;20048;-79
2023/04/12 08:20:05;;;;;;;11.85;2.20;;;;;;;8.63;nan;96470.81;5041989;28;20036;-78
2023/04/12 08:22:50;;;;;;;7.03;1.77;;;;;;;8.81;nan;96453.97;5042203;28;20039;-74
2023/04/12 08:25:35;;;;;;;5.28;2.03;;;;;;;8.97;nan;96471.41;5030692;28;20563;-76
2023/04/12 08:28:19;;;;;;;8.13;1.77;;;;;;;8.99;nan;96464.09;5038414;28;20102;-79
2023/04/12 08:31:04;;;;;;;6.38;2.45;;;;;;;9.11;nan;96465.78;5038989;28;20040;-79
2023/04/12 08:33:48;;;;;;;7.63;2.22;;;;;;;9.41;nan;96456.59;5039239;28;20043;-79
2023/04/12 08:36:32;;;;;;;5.20;1.60;;;;;;;9.28;nan;96440.28;5044758;28;20136;-78
2023/04/12 08:39:16;;;;;;;6.85;1.60;;;;;;;9.00;nan;96433.50;5037163;28;20044;-77
2023/04/12 08:42:03;;;;;;;6.43;1.83;;;;;;;9.29;nan;96425.34;5045842;28;20114;-76
2023/04/12 08:44:49;;;;;;;5.22;1.70;;;;;;;8.89;nan;96422.16;5036555;28;20064;-77
2023/04/12 08:47:37;;;;;;;8.25;1.77;;;;;;;8.84;nan;96424.72;5044357;28;20107;-78
2023/04/12 08:50:22;;;;;;;6.47;1.80;;;;;;;9.17;nan;96411.66;5039385;28;20094;-76
2023/04/12 08:53:09;;;;;;;6.35;2.05;;;;;;;9.60;nan;96403.81;5042282;28;20103;-77
2023/04/12 08:55:53;;;;;;;6.50;1.98;;;;;;;9.92;nan;96400.31;5041572;28;20044;-77
2023/04/12 08:58:49;;;;;;;9.13;1.98;;;;;;;9.53;nan;96396.16;5034951;28;20096;-77
2023/04/12 09:01:33;;;;;;;4.50;1.70;;;;;;;9.52;nan;96377.06;5038372;28;20052;-76
2023/04/12 09:04:17;;;;;;;8.73;1.80;;;;;;;9.00;nan;96373.31;5045304;28;20106;-76
2023/04/12 09:07:01;;;;;;;3.63;2.15;;;;;;;8.80;nan;96371.31;5041868;28;20048;-76
2023/04/12 09:09:46;;;;;;;5.15;1.60;;;;;;;9.00;nan;96347.16;5041084;28;20083;-76
2023/04/12 09:12:31;;;;;;;3.83;1.70;;;;;;;8.88;nan;96343.91;5045174;28;20517;-77
2023/04/12 09:15:16;;;;;;;6.30;2.13;;;;;;;8.95;nan;96324.34;5037412;28;20462;-76
2023/04/12 09:18:12;;;;;;;7.72;2.17;;;;;;;9.19;nan;96331.06;5037819;28;20044;-74
2023/04/12 09:21:07;;;;;;;4.80;1.95;;;;;;;9.40;nan;96326.72;5038651;28;20048;-74
2023/04/12 09:24:17;;;;;;;4.88;1.63;;;;;;;9.64;nan;96315.84;5039828;28;20094;-75
2023/04/12 09:27:03;;;;;;;6.95;1.90;;;;;;;9.63;nan;96301.97;5041905;28;20147;-75
2023/04/12 09:29:51;;;;;;;6.28;1.92;;;;;;;10.28;nan;96298.22;5038590;28;20106;-75
2023/04/12 09:32:35;;;;;;;7.53;2.10;;;;;;;10.62;nan;96284.63;5037336;28;20068;-75
2023/04/12 09:35:35;;;;;;;4.43;1.70;;;;;;;10.67;nan;96284.63;5039989;28;20123;-75
2023/04/12 09:38:20;;;;;;;6.30;1.80;;;;;;;10.86;nan;96265.72;5044430;28;20509;-76
2023/04/12 09:41:18;;;;;;;4.68;1.90;;;;;;;10.91;nan;96272.81;5039156;28;20598;-76
2023/04/12 09:44:03;;;;;;;5.97;1.70;;;;;;;11.14;nan;96269.63;5037854;28;20051;-74
2023/04/12 09:46:51;;;;;;;6.25;2.30;;;;;;;10.90;nan;96276.47;5040922;28;20048;-75
2023/04/12 09:49:37;;;;;;;9.30;3.40;;;;;;;11.33;nan;96263.78;5041919;28;20040;-75
2023/04/12 09:52:21;;;;;;;9.25;2.63;;;;;;;11.15;nan;96259.88;5038639;28;20044;-76
2023/04/12 09:55:10;;;;;;;8.88;2.28;;;;;;;11.67;nan;96242.09;5039929;28;20542;-76
2023/04/12 09:57:55;;;;;;;8.75;2.10;;;;;;;12.03;nan;96238.53;5031508;28;20049;-75
2023/04/12 10:00:40;;;;;;;6.70;2.13;;;;;;;12.54;nan;96226.03;5038366;28;20074;-76
2023/04/12 10:03:24;;;;;;;10.02;2.60;;;;;;;12.13;nan;96227.91;5038614;28;20114;-76
2023/04/12 10:06:11;;;;;;;7.47;2.45;;;;;;;11.77;nan;96238.63;5032848;28;20103;-78
2023/04/12 10:08:56;;;;;;;10.20;2.88;;;;;;;11.76;nan;96241.53;5044193;28;20183;-75
2023/04/12 10:11:43;;;;;;;8.80;2.75;;;;;;;10.97;nan;96235.78;5044661;28;20044;-78
2023/04/12 10:14:28;;;;;;;6.20;2.45;;;;;;;10.91;nan;96230.81;5035361;28;20048;-79
2023/04/12 10:17:12;;;;;;;7.97;2.28;;;;;;;10.76;nan;96226.38;5038945;28;20142;-78
2023/04/12 10:19:58;;;;;;;5.32;2.92;;;;;;;10.79;nan;96203.03;5036959;28;20106;-79
2023/04/12 10:22:43;;;;;;;7.43;2.47;;;;;;;10.53;nan;96204.88;5039843;28;20043;-79
2023/04/12 10:25:29;;;;;;;6.85;2.17;;;;;;;10.59;nan;96214.31;5040923;28;20094;-78
2023/04/12 10:28:21;;;;;;;10.52;2.25;;;;;;;10.67;nan;96194.63;5041358;28;20064;-78
2023/04/12 10:31:32;;;;;;;9.73;2.53;;;;;;;10.58;nan;96210.13;5045270;28;20041;-78
2023/04/12 10:34:17;;;;;;;5.35;1.75;;;;;;;10.26;nan;96198.06;5045236;28;20126;-79
2023/04/12 10:37:01;;;;;;;8.77;1.70;;;;;;;9.55;nan;96208.97;5043956;28;20084;-77
2023/04/12 10:39:53;;;;;;;10.35;2.70;;;;;;;9.04;nan;96193.06;5041702;28;20518;-78
2023/04/12 10:42:37;;;;;;;7.15;2.08;;;;;;;9.18;nan;96191.56;5044964;28;20095;-83
2023/04/12 10:45:24;;;;;;;8.93;2.20;;;;;;;8.96;nan;96176.81;5040033;28;20466;-84
2023/04/12 10:48:31;;;;;;;15.60;2.22;;;;;;;8.76;nan;96155.78;5039506;28;20458;-79
2023/04/12 10:51:26;;;;;;;11.15;1.98;;;;;;;8.49;nan;96159.28;5045412;28;20098;-79
2023/04/12 10:54:30;;;;;;;5.13;1.83;;;;;;;8.55;nan;96132.94;5037714;28;20056;-85
2023/04/12 10:57:52;;;;;;;7.10;2.33;;;;;;;9.26;nan;96136.13;5036812;28;20036;-84
2023/04/12 11:00:55;;;;;;;3.53;1.70;;;;;;;9.26;nan;96127.47;5030170;28;20490;-83
2023/04/12 11:04:14;;;;;;;7.22;2.25;;;;;;;9.66;nan;96127.81;5042010;28;20071;-83
2023/04/12 11:07:00;;;;;;;3.63;1.90;;;;;;;9.68;nan;96128.34;5033077;28;20395;-84
2023/04/12 11:09:46;;;;;;;8.13;1.90;;;;;;;9.63;nan;96118.63;5040035;28;20461;-84
2023/04/12 11:12:31;;;;;;;6.20;1.92;;;;;;;10.25;nan;96120.47;5046245;28;20049;-84
2023/04/12 11:15:15;;;;;;;10.85;2.17;;;;;;;10.61;nan;96107.31;5042102;28;20410;-84
2023/04/12 11:18:00;;;;;;;8.70;1.92;;;;;;;11.08;nan;96088.75;5041010;28;20044;-85
2023/04/12 11:20:44;;;;;;;13.45;2.60;;;;;;;10.62;nan;96092.34;5042429;28;20051;-87
2023/04/12 11:23:31;;;;;;;7.03;1.92;;;;;;;10.40;nan;96073.25;5045460;28;20047;-85
2023/04/12 11:26:19;;;;;;;9.63;2.03;;;;;;;10.96;nan;96063.63;5040291;28;22202;-82
2023/04/12 11:29:07;;;;;;;5.43;1.80;;;;;;;11.16;nan;96056.69;5038678;28;20039;-83
2023/04/12 11:31:51;;;;;;;11.15;2.72;;;;;;;10.40;nan;96049.66;5042804;28;20040;-84
2023/04/12 11:34:36;;;;;;;6.72;2.25;;;;;;;9.77;nan;96045.56;5043235;28;20040;-83
2023/04/12 11:37:22;;;;;;;9.13;2.35;;;;;;;9.32;nan;96055.75;5040426;28;20100;-82
2023/04/12 11:40:08;;;;;;;14.15;2.78;;;;;;;9.49;nan;96026.72;5037584;28;20498;-81
2023/04/12 11:42:52;;;;;;;15.43;2.90;;;;;;;9.10;nan;96050.75;5039803;28;20556;-82
2023/04/12 11:45:36;;;;;;;11.00;2.40;;;;;;;9.32;nan;96052.38;5041675;28;20045;-82
2023/04/12 11:48:20;;;;;;;11.73;2.72;;;;;;;9.62;nan;96035.88;5043092;28;20114;-82
2023/04/12 11:51:23;;;;;;;10.35;2.33;;;;;;;9.84;nan;96021.72;5041695;28;20044;-82
2023/04/12 11:54:09;;;;;;;9.80;3.08;;;;;;;10.02;nan;96014.34;5039409;28;20052;-82
2023/04/12 11:56:57;;;;;;;7.80;2.58;;;;;;;10.66;nan;96009.44;5039919;28;20090;-80
2023/04/12 11:59:46;;;;;;;5.80;2.15;;;;;;;10.49;nan;95984.34;5043461;28;20036;-82
2023/04/12 12:02:32;;;;;;;7.40;2.08;;;;;;;11.40;nan;95991.16;5044003;28;20040;-82
2023/04/12 12:05:17;;;;;;;5.85;2.40;;;;;;;10.74;nan;95971.38;5036609;28;20507;-82
2023/04/12 12:08:04;;;;;;;8.75;3.15;;;;;;;10.98;nan;95968.88;5041636;28;20056;-81
2023/04/12 12:10:48;;;;;;;10.13;2.25;;;;;;;10.87;nan;95947.16;5043364;28;20328;-82
2023/04/12 12:14:02;;;;;;;6.03;2.25;;;;;;;11.08;nan;95936.53;5040647;28;20510;-82
2023/04/12 12:16:54;;;;;;;8.45;2.75;;;;;;;10.98;nan;95942.63;5042214;28;20044;-82
2023/04/12 12:19:41;;;;;;;7.93;2.20;;;;;;;10.66;nan;95910.56;5039439;28;20044;-83
2023/04/12 12:22:25;;;;;;;8.50;2.25;;;;;;;10.64;nan;95923.19;5038499;28;20107;-83
2023/04/12 12:25:10;;;;;;;6.47;2.05;;;;;;;11.09;nan;95917.09;5035476;28;20443;-83
2023/04/12 12:27:57;;;;;;;4.47;2.00;;;;;;;11.45;nan;95922.03;5038239;28;20167;-82
2023/04/12 12:30:41;;;;;;;5.20;2.05;;;;;;;10.91;nan;95889.69;5042434;28;20060;-82
2023/04/12 12:33:36;;;;;;;5.90;1.92;;;;;;;10.63;nan;95921.59;5038268;28;20518;-82
2023/04/12 12:37:07;;;;;;;7.25;1.90;;;;;;;11.22;nan;95903.34;5038222;28;20087;-81
2023/04/12 12:40:15;;;;;;;7.63;2.00;;;;;;;11.33;nan;95904.03;5043560;28;20048;-80
2023/04/12 12:42:59;;;;;;;4.82;1.40;;;;;;;11.86;nan;95897.19;5046406;28;20067;-80
2023/04/12 12:45:44;;;;;;;7.47;1.77;;;;;;;12.23;nan;95894.97;5040054;28;20098;-81
2023/04/12 12:48:28;;;;;;;4.97;1.60;;;;;;;12.89;nan;95884.56;5036560;28;20122;-81
2023/04/12 12:51:16;;;;;;;3.72;1.70;;;;;;;12.64;nan;95877.81;5039464;28;20064;-81
2023/04/12 12:54:00;;;;;;;4.20;1.70;;;;;;;12.91;nan;95869.25;5043737;28;20089;-76
2023/04/12 12:56:45;;;;;;;6.13;1.73;;;;;;;12.63;nan;95876.25;5045292;28;20052;-76
2023/04/12 12:59:29;;;;;;;5.20;1.88;;;;;;;13.04;nan;95856.41;5050705;28;20055;-77
2023/04/12 13:02:14;;;;;;;5.03;1.60;;;;;;;11.93;nan;95865.31;5039800;28;20394;-77
2023/04/12 13:05:00;;;;;;;11.32;2.50;;;;;;;12.32;nan;95853.03;5040977;28;20501;-77
2023/04/12 13:07:45;;;;;;;3.88;1.77;;;;;;;12.94;nan;95839.72;5042959;28;20048;-76
2023/04/12 13:10:29;;;;;;;8.70;2.30;;;;;;;13.24;nan;95836.84;5041214;28;20521;-78
2023/04/12 13:13:14;;;;;;;5.07;2.60;;;;;;;14.04;nan;95836.69;5037810;28;20098;-78
2023/04/12 13:15:58;;;;;;;4.65;2.20;;;;;;;13.22;nan;95821.34;5037329;28;20092;-78
2023/04/12 13:18:42;;;;;;;8.70;2.97;;;;;;;13.52;nan;95813.97;5047231;28;20099;-77
2023/04/12 13:21:26;;;;;;;5.38;2.30;;;;;;;13.77;nan;95814.56;5043592;28;20098;-78
2023/04/12 13:24:12;;;;;;;4.95;2.88;;;;;;;13.71;nan;95802.53;5038799;28;20397;-79
2023/04/12 13:26:57;;;;;;;6.03;2.55;;;;;;;14.00;nan;95790.88;5044943;28;20039;-78